createdAt,value
2023-04-15T00:02:19.907Z,99.90
2023-04-15T00:05:06.163Z,99.90
2023-04-15T00:07:51.466Z,99.90
2023-04-15T00:10:35.597Z,99.90
2023-04-15T00:13:18.585Z,99.90
2023-04-15T00:16:01.687Z,1.00
2023-04-15T00:18:43.951Z,99.90
2023-04-15T00:21:29.060Z,99.90
2023-04-15T00:24:11.758Z,99.90
2023-04-15T00:26:54.651Z,1.00
2023-04-15T00:29:36.903Z,1.00
2023-04-15T00:32:20.336Z,1.00
2023-04-15T00:35:03.292Z,1.00
2023-04-15T00:37:46.565Z,1.00
2023-04-15T00:40:28.700Z,1.00
2023-04-15T00:43:11.154Z,99.90
2023-04-15T00:45:57.460Z,99.90
2023-04-15T00:48:40.813Z,99.90
2023-04-15T00:51:23.896Z,99.90
2023-04-15T00:54:07.860Z,99.90
2023-04-15T00:56:50.073Z,99.90
2023-04-15T00:59:34.492Z,84.00
2023-04-15T01:02:17.005Z,94.80
2023-04-15T01:04:59.529Z,99.90
2023-04-15T01:07:41.714Z,39.00
2023-04-15T01:10:24.169Z,8.50
2023-04-15T01:13:06.939Z,99.90
2023-04-15T01:15:49.469Z,99.90
2023-04-15T01:18:32.227Z,99.90
2023-04-15T01:21:15.253Z,99.90
2023-04-15T01:23:58.522Z,99.90
2023-04-15T01:26:42.370Z,1.00
2023-04-15T01:29:25.360Z,1.00
2023-04-15T01:32:07.895Z,11.90
2023-04-15T01:34:50.321Z,92.40
2023-04-15T01:37:33.128Z,99.90
2023-04-15T01:40:15.506Z,99.90
2023-04-15T01:42:57.973Z,99.90
2023-04-15T01:45:40.083Z,99.90
2023-04-15T01:48:23.259Z,99.90
2023-04-15T01:51:05.824Z,99.90
2023-04-15T01:53:48.442Z,99.90
2023-04-15T01:56:31.333Z,99.90
2023-04-15T01:59:13.884Z,99.90
2023-04-15T02:01:57.539Z,1.00
2023-04-15T02:04:40.122Z,1.00
2023-04-15T02:07:22.350Z,1.00
2023-04-15T02:10:05.785Z,54.30
2023-04-15T02:12:51.087Z,99.90
2023-04-15T02:15:34.373Z,99.90
2023-04-15T02:18:17.120Z,99.90
2023-04-15T02:20:59.673Z,99.90
2023-04-15T02:23:41.972Z,99.90
2023-04-15T02:26:25.364Z,99.90
2023-04-15T02:29:09.734Z,99.90
2023-04-15T02:31:52.186Z,99.90
2023-04-15T02:34:36.080Z,99.90
2023-04-15T02:37:20.402Z,1.00
2023-04-15T02:40:03.305Z,1.00
2023-04-15T02:42:45.854Z,1.00
2023-04-15T02:45:30.894Z,1.00
2023-04-15T02:48:19.769Z,1.00
2023-04-15T02:51:14.291Z,1.00
2023-04-15T02:53:56.751Z,1.00
2023-04-15T02:56:38.876Z,1.00
2023-04-15T02:59:21.495Z,1.00
2023-04-15T03:02:03.881Z,1.00
2023-04-15T03:04:46.500Z,31.50
2023-04-15T03:07:28.791Z,99.90
2023-04-15T03:10:11.822Z,53.80
2023-04-15T03:12:54.064Z,54.60
2023-04-15T03:15:39.025Z,82.70
2023-04-15T03:18:21.698Z,99.90
2023-04-15T03:21:04.690Z,99.90
2023-04-15T03:23:50.311Z,99.90
2023-04-15T03:26:33.747Z,99.90
2023-04-15T03:29:21.121Z,99.90
2023-04-15T03:32:04.263Z,99.90
2023-04-15T03:34:49.668Z,99.90
2023-04-15T03:37:32.356Z,99.90
2023-04-15T03:40:14.671Z,99.90
2023-04-15T03:42:57.186Z,99.90
2023-04-15T03:45:39.506Z,99.90
2023-04-15T03:48:21.906Z,99.90
2023-04-15T03:51:04.142Z,99.90
2023-04-15T03:53:46.556Z,99.90
2023-04-15T03:56:28.753Z,99.90
2023-04-15T03:59:11.487Z,99.90
2023-04-15T04:01:53.754Z,99.90
2023-04-15T04:04:36.354Z,99.90
2023-04-15T04:07:18.887Z,99.90
2023-04-15T04:10:01.728Z,99.90
2023-04-15T04:12:43.948Z,99.90
2023-04-15T04:15:26.422Z,99.90
2023-04-15T04:18:08.649Z,99.90
2023-04-15T04:20:51.290Z,99.90
2023-04-15T04:23:33.789Z,99.90
2023-04-15T04:26:16.331Z,99.90
2023-04-15T04:28:58.747Z,99.90
2023-04-15T04:31:41.621Z,99.90
2023-04-15T04:34:24.007Z,99.90
2023-04-15T04:37:07.335Z,99.90
2023-04-15T04:39:49.691Z,99.90
2023-04-15T04:42:32.168Z,99.90
2023-04-15T04:45:14.305Z,99.90
2023-04-15T04:47:56.824Z,99.90
2023-04-15T04:50:39.231Z,99.90
2023-04-15T04:53:21.819Z,99.90
2023-04-15T04:56:04.528Z,99.90
2023-04-15T04:58:47.405Z,99.90
2023-04-15T05:01:29.794Z,99.90
2023-04-15T05:04:12.485Z,99.90
2023-04-15T05:06:55.032Z,99.90
2023-04-15T05:09:40.187Z,99.90
2023-04-15T05:12:22.697Z,99.90
2023-04-15T05:15:06.652Z,99.90
2023-04-15T05:17:48.895Z,99.90
2023-04-15T05:20:31.464Z,99.90
2023-04-15T05:23:13.798Z,99.90
2023-04-15T05:25:56.512Z,99.90
2023-04-15T05:28:38.968Z,99.90
2023-04-15T05:31:21.574Z,99.90
2023-04-15T05:34:03.795Z,99.90
2023-04-15T05:36:46.482Z,99.90
2023-04-15T05:39:28.760Z,99.90
2023-04-15T05:42:11.508Z,99.90
2023-04-15T05:44:53.817Z,99.90
2023-04-15T05:47:37.526Z,99.90
2023-04-15T05:50:21.010Z,99.90
2023-04-15T05:53:03.539Z,99.90
2023-04-15T05:55:46.064Z,99.90
2023-04-15T05:58:28.600Z,99.90
2023-04-15T06:01:10.915Z,99.90
2023-04-15T06:03:53.685Z,99.90
2023-04-15T06:06:36.088Z,99.90
2023-04-15T06:09:18.773Z,99.90
2023-04-15T06:12:02.085Z,99.90
2023-04-15T06:14:44.582Z,99.90
2023-04-15T06:17:26.840Z,99.90
2023-04-15T06:20:10.023Z,99.90
2023-04-15T06:22:55.712Z,99.90
2023-04-15T06:25:40.540Z,99.90
2023-04-15T06:28:23.088Z,99.90
2023-04-15T06:31:08.405Z,99.90
2023-04-15T06:33:53.722Z,99.90
2023-04-15T06:36:36.305Z,99.90
2023-04-15T06:39:18.882Z,99.90
2023-04-15T06:42:01.751Z,99.90
2023-04-15T06:44:49.657Z,99.90
2023-04-15T06:47:36.980Z,99.90
2023-04-15T06:50:19.443Z,99.90
2023-04-15T06:53:02.194Z,99.90
2023-04-15T06:55:44.858Z,99.90
2023-04-15T06:58:27.692Z,99.90
2023-04-15T07:01:10.114Z,99.90
2023-04-15T07:03:52.785Z,99.90
2023-04-15T07:06:35.765Z,99.90
2023-04-15T07:09:18.618Z,99.90
2023-04-15T07:12:01.131Z,99.90
2023-04-15T07:14:43.560Z,99.90
2023-04-15T07:17:25.848Z,99.90
2023-04-15T07:20:09.125Z,99.90
2023-04-15T07:22:51.499Z,99.90
2023-04-15T07:25:34.018Z,99.90
2023-04-15T07:28:16.481Z,99.90
2023-04-15T07:30:59.120Z,99.90
2023-04-15T07:33:41.914Z,99.90
2023-04-15T07:36:24.456Z,99.90
2023-04-15T07:39:07.130Z,99.90
2023-04-15T07:41:49.932Z,99.90
2023-04-15T07:44:32.630Z,99.90
2023-04-15T07:47:15.850Z,99.90
2023-04-15T07:49:58.782Z,99.90
2023-04-15T07:52:41.579Z,99.90
2023-04-15T07:55:28.237Z,99.90
2023-04-15T07:58:11.117Z,99.90
2023-04-15T08:00:55.343Z,99.90
2023-04-15T08:03:41.380Z,99.90
2023-04-15T08:06:25.125Z,99.90
2023-04-15T08:09:08.392Z,99.90
2023-04-15T08:11:53.639Z,99.90
2023-04-15T08:14:36.260Z,99.90
2023-04-15T08:17:18.597Z,99.90
2023-04-15T08:20:01.559Z,99.90
2023-04-15T08:22:43.909Z,99.90
2023-04-15T08:25:27.320Z,99.90
2023-04-15T08:28:09.610Z,99.90
2023-04-15T08:30:53.574Z,99.90
2023-04-15T08:33:36.055Z,99.90
2023-04-15T08:36:18.994Z,99.90
2023-04-15T08:39:05.072Z,99.90
2023-04-15T08:42:07.200Z,99.90
2023-04-15T08:44:49.931Z,99.90
2023-04-15T08:47:34.503Z,99.90
2023-04-15T08:50:17.505Z,99.90
2023-04-15T08:53:00.736Z,99.90
2023-04-15T08:55:45.833Z,99.90
2023-04-15T08:58:28.656Z,99.90
2023-04-15T09:01:13.300Z,99.90
2023-04-15T09:03:57.895Z,99.90
2023-04-15T09:06:41.206Z,99.90
2023-04-15T09:09:24.209Z,99.90
2023-04-15T09:12:07.490Z,99.90
2023-04-15T09:14:50.709Z,99.90
2023-04-15T09:17:34.775Z,99.90
2023-04-15T09:20:20.187Z,99.90
2023-04-15T09:23:13.770Z,99.90
2023-04-15T09:25:58.106Z,99.90
2023-04-15T09:28:43.633Z,99.90
2023-04-15T09:31:31.437Z,99.90
2023-04-15T09:34:13.808Z,99.90
2023-04-15T09:36:57.526Z,99.90
2023-04-15T09:39:48.531Z,99.90
2023-04-15T09:42:32.623Z,99.90
2023-04-15T09:45:15.252Z,99.90
2023-04-15T09:48:17.067Z,99.90
2023-04-15T09:51:00.797Z,99.90
2023-04-15T09:53:43.249Z,99.90
2023-04-15T09:56:36.186Z,99.90
2023-04-15T09:59:20.063Z,99.90
2023-04-15T10:02:05.922Z,99.90
2023-04-15T10:04:49.692Z,99.90
2023-04-15T10:07:33.165Z,99.90
2023-04-15T10:10:16.314Z,99.90
2023-04-15T10:12:58.948Z,77.70
2023-04-15T10:15:46.156Z,33.20
2023-04-15T10:18:30.426Z,69.60
2023-04-15T10:21:15.756Z,9.90
2023-04-15T10:23:59.103Z,1.00
2023-04-15T10:26:42.512Z,1.00
2023-04-15T10:29:27.362Z,99.90
2023-04-15T10:32:10.773Z,1.00
2023-04-15T10:34:55.062Z,99.90
2023-04-15T10:37:38.921Z,1.00
2023-04-15T10:40:32.777Z,99.90
2023-04-15T10:43:25.713Z,1.00
2023-04-15T10:46:08.111Z,1.00
2023-04-15T10:48:52.529Z,1.00
2023-04-15T10:51:41.677Z,7.90
2023-04-15T10:54:27.417Z,99.90
2023-04-15T10:57:16.389Z,1.00
2023-04-15T10:59:58.978Z,78.10
2023-04-15T11:02:53.635Z,99.90
2023-04-15T11:05:42.155Z,99.90
2023-04-15T11:08:55.469Z,99.90
2023-04-15T11:12:11.238Z,99.90
2023-04-15T11:14:53.523Z,99.90
2023-04-15T11:17:37.644Z,99.90
2023-04-15T11:20:20.304Z,99.90
2023-04-15T11:23:08.124Z,99.90
2023-04-15T11:25:58.656Z,99.90
2023-04-15T11:28:43.452Z,99.90
2023-04-15T11:31:28.823Z,99.90
2023-04-15T11:34:11.357Z,99.90
2023-04-15T11:36:58.975Z,99.90
2023-04-15T11:39:42.256Z,99.90
2023-04-15T11:42:24.502Z,99.90
2023-04-15T11:45:16.137Z,99.90
2023-04-15T11:48:16.380Z,99.90
2023-04-15T11:51:04.516Z,99.90
2023-04-15T11:53:52.051Z,99.90
2023-04-15T11:56:37.372Z,99.90
2023-04-15T11:59:19.721Z,99.90
2023-04-15T12:02:13.045Z,99.90
2023-04-15T12:05:05.343Z,99.90
2023-04-15T12:08:08.176Z,79.30
2023-04-15T12:10:50.503Z,1.00
2023-04-15T12:13:33.096Z,1.00
2023-04-15T12:16:20.843Z,23.50
2023-04-15T12:19:08.532Z,1.00
2023-04-15T12:21:51.183Z,1.00
2023-04-15T12:24:35.976Z,1.00
2023-04-15T12:27:18.258Z,36.30
2023-04-15T12:30:05.379Z,20.40
2023-04-15T12:32:48.788Z,39.10
2023-04-15T12:35:31.400Z,99.90
2023-04-15T12:38:14.878Z,99.90
2023-04-15T12:40:59.324Z,37.60
2023-04-15T12:43:42.238Z,99.90
2023-04-15T12:46:25.205Z,21.90
2023-04-15T12:49:08.150Z,72.90
2023-04-15T12:51:52.756Z,1.00
2023-04-15T12:54:36.115Z,99.90
2023-04-15T12:57:18.792Z,99.90
2023-04-15T13:00:01.182Z,99.90
2023-04-15T13:02:44.853Z,99.90
2023-04-15T13:05:27.171Z,99.90
2023-04-15T13:08:09.640Z,99.90
2023-04-15T13:10:51.989Z,99.90
2023-04-15T13:13:34.677Z,99.90
2023-04-15T13:16:17.035Z,97.30
2023-04-15T13:19:00.659Z,32.00
2023-04-15T13:21:43.998Z,1.00
2023-04-15T13:24:26.688Z,99.90
2023-04-15T13:27:08.953Z,1.00
2023-04-15T13:29:51.488Z,1.00
2023-04-15T13:32:33.728Z,59.60
2023-04-15T13:35:16.342Z,7.60
2023-04-15T13:37:58.531Z,89.10
2023-04-15T13:40:41.350Z,87.20
2023-04-15T13:43:23.629Z,99.90
2023-04-15T13:46:06.282Z,99.90
2023-04-15T13:48:48.694Z,99.90
2023-04-15T13:51:31.889Z,99.90
2023-04-15T13:54:14.299Z,1.00
2023-04-15T13:56:58.020Z,1.00
2023-04-15T13:59:40.472Z,1.00
2023-04-15T14:02:23.518Z,1.00
2023-04-15T14:05:06.555Z,27.80
2023-04-15T14:07:49.006Z,54.40
2023-04-15T14:10:31.231Z,99.90
2023-04-15T14:13:13.922Z,99.90
2023-04-15T14:15:58.268Z,99.90
2023-04-15T14:18:40.993Z,99.90
2023-04-15T14:21:23.285Z,99.90
2023-04-15T14:24:06.359Z,99.90
2023-04-15T14:26:48.666Z,99.90
2023-04-15T14:29:31.245Z,99.90
2023-04-15T14:32:14.741Z,99.90
2023-04-15T14:34:58.539Z,99.90
2023-04-15T14:37:40.864Z,68.00
2023-04-15T14:40:23.395Z,99.90
2023-04-15T14:43:05.677Z,99.90
2023-04-15T14:45:48.331Z,10.00
2023-04-15T14:48:32.191Z,39.50
2023-04-15T14:51:14.876Z,26.50
2023-04-15T14:53:57.114Z,1.00
2023-04-15T14:56:39.644Z,93.30
2023-04-15T14:59:22.047Z,52.20
2023-04-15T15:02:04.642Z,99.90
2023-04-15T15:04:47.119Z,99.90
2023-04-15T15:07:29.659Z,35.80
2023-04-15T15:10:12.238Z,10.70
2023-04-15T15:12:55.700Z,1.00
2023-04-15T15:15:39.115Z,1.00
2023-04-15T15:18:21.835Z,1.00
2023-04-15T15:21:04.141Z,93.40
2023-04-15T15:23:48.294Z,53.50
2023-04-15T15:26:30.522Z,47.90
2023-04-15T15:29:13.226Z,93.90
2023-04-15T15:31:55.524Z,16.40
2023-04-15T15:34:38.137Z,1.00
2023-04-15T15:37:20.427Z,1.00
2023-04-15T15:40:07.117Z,41.30
2023-04-15T15:42:51.026Z,75.60
2023-04-15T15:45:34.317Z,99.90
2023-04-15T15:48:16.625Z,99.90
2023-04-15T15:50:59.107Z,99.90
2023-04-15T15:53:41.857Z,99.90
2023-04-15T15:56:24.725Z,99.90
2023-04-15T15:59:07.071Z,99.90
2023-04-15T16:01:50.612Z,99.90
2023-04-15T16:04:33.131Z,99.90
2023-04-15T16:07:15.964Z,99.90
2023-04-15T16:09:58.304Z,99.90
2023-04-15T16:12:41.820Z,99.90
2023-04-15T16:15:26.709Z,99.90
2023-04-15T16:18:09.381Z,99.90
2023-04-15T16:20:51.578Z,99.90
2023-04-15T16:23:34.308Z,99.90
2023-04-15T16:26:17.107Z,99.90
2023-04-15T16:29:00.491Z,99.90
2023-04-15T16:31:42.838Z,99.90
2023-04-15T16:34:25.527Z,1.00
2023-04-15T16:37:07.779Z,99.90
2023-04-15T16:39:50.465Z,1.00
2023-04-15T16:42:32.885Z,1.00
2023-04-15T16:45:15.889Z,1.00
2023-04-15T16:47:58.298Z,1.00
2023-04-15T16:50:40.863Z,99.90
2023-04-15T16:53:23.371Z,1.00
2023-04-15T16:56:07.005Z,99.90
2023-04-15T16:58:49.362Z,99.90
2023-04-15T17:01:32.147Z,99.90
2023-04-15T17:04:14.797Z,99.90
2023-04-15T17:06:57.937Z,99.90
2023-04-15T17:09:40.798Z,99.90
2023-04-15T17:12:23.634Z,99.90
2023-04-15T17:15:07.242Z,99.90
2023-04-15T17:17:50.032Z,99.90
2023-04-15T17:20:32.623Z,99.90
2023-04-15T17:23:15.034Z,99.90
2023-04-15T17:25:57.222Z,99.90
2023-04-15T17:28:39.692Z,99.90
2023-04-15T17:31:21.911Z,1.00
2023-04-15T17:34:10.730Z,1.00
2023-04-15T17:36:55.118Z,99.90
2023-04-15T17:39:37.769Z,99.90
2023-04-15T17:42:19.948Z,1.00
2023-04-15T17:45:02.905Z,1.00
2023-04-15T17:47:45.947Z,72.00
2023-04-15T17:50:28.671Z,99.90
2023-04-15T17:53:11.233Z,99.90
2023-04-15T17:55:53.845Z,99.90
2023-04-15T17:58:36.584Z,99.90
2023-04-15T18:01:19.372Z,99.90
2023-04-15T18:04:02.096Z,99.90
2023-04-15T18:06:45.433Z,99.90
2023-04-15T18:09:28.018Z,1.00
2023-04-15T18:12:10.923Z,1.00
2023-04-15T18:14:53.761Z,1.00
2023-04-15T18:17:36.996Z,1.00
2023-04-15T18:20:19.921Z,39.30
2023-04-15T18:23:02.699Z,99.90
2023-04-15T18:25:45.277Z,99.90
2023-04-15T18:28:29.189Z,99.90
2023-04-15T18:31:12.425Z,99.90
2023-04-15T18:33:54.952Z,99.90
2023-04-15T18:36:37.156Z,99.90
2023-04-15T18:39:19.645Z,99.90
2023-04-15T18:42:02.172Z,28.20
2023-04-15T18:44:45.239Z,1.00
2023-04-15T18:47:28.501Z,1.00
2023-04-15T18:50:11.445Z,99.90
2023-04-15T18:52:53.841Z,99.90
2023-04-15T18:55:36.480Z,99.90
2023-04-15T18:58:18.981Z,99.90
2023-04-15T19:01:01.561Z,99.90
2023-04-15T19:03:44.705Z,99.90
2023-04-15T19:06:27.470Z,99.90
2023-04-15T19:09:10.123Z,99.90
2023-04-15T19:11:52.614Z,99.90
2023-04-15T19:14:34.977Z,99.90
2023-04-15T19:17:17.499Z,99.90
2023-04-15T19:19:59.973Z,99.90
2023-04-15T19:22:43.363Z,99.90
2023-04-15T19:25:25.766Z,99.90
2023-04-15T19:28:08.468Z,99.90
2023-04-15T19:30:52.429Z,99.90
2023-04-15T19:33:34.993Z,99.90
2023-04-15T19:36:18.356Z,25.70
2023-04-15T19:39:01.610Z,1.00
2023-04-15T19:41:44.845Z,1.00
2023-04-15T19:44:27.991Z,1.00
2023-04-15T19:47:11.108Z,63.00
2023-04-15T19:49:53.899Z,99.90
2023-04-15T19:52:36.610Z,99.90
2023-04-15T19:55:19.237Z,97.30
2023-04-15T19:58:01.853Z,72.60
2023-04-15T20:00:44.697Z,1.00
2023-04-15T20:03:27.161Z,1.00
2023-04-15T20:06:09.778Z,99.90
2023-04-15T20:08:52.259Z,99.90
2023-04-15T20:12:09.283Z,99.90
2023-04-15T20:14:37.935Z,1.00
2023-04-15T20:17:20.706Z,1.00
2023-04-15T20:20:04.798Z,99.90
2023-04-15T20:22:49.184Z,99.90
2023-04-15T20:25:31.719Z,99.90
2023-04-15T20:28:14.285Z,99.90
2023-04-15T20:30:56.739Z,99.90
2023-04-15T20:33:39.280Z,99.90
2023-04-15T20:36:21.576Z,99.90
2023-04-15T20:39:04.360Z,99.90
2023-04-15T20:41:47.161Z,99.90
2023-04-15T20:44:30.330Z,99.90
2023-04-15T20:47:12.668Z,99.90
2023-04-15T20:49:55.450Z,99.90
2023-04-15T20:52:38.393Z,99.90
2023-04-15T20:55:21.698Z,99.90
2023-04-15T20:58:04.149Z,99.90
2023-04-15T21:00:47.140Z,99.90
2023-04-15T21:03:29.848Z,99.90
2023-04-15T21:06:12.792Z,99.90
2023-04-15T21:08:55.441Z,99.90
2023-04-15T21:11:57.485Z,99.90
2023-04-15T21:14:40.687Z,99.90
2023-04-15T21:17:23.196Z,99.90
2023-04-15T21:20:06.242Z,99.90
2023-04-15T21:22:49.101Z,99.90
2023-04-15T21:25:31.314Z,99.90
2023-04-15T21:28:13.703Z,99.90
2023-04-15T21:30:59.478Z,99.90
2023-04-15T21:33:42.113Z,99.90
2023-04-15T21:36:24.347Z,99.90
2023-04-15T21:39:07.260Z,99.90
2023-04-15T21:41:49.823Z,99.90
2023-04-15T21:44:32.453Z,99.90
2023-04-15T21:47:14.860Z,99.90
2023-04-15T21:49:57.486Z,99.90
2023-04-15T21:52:39.714Z,99.90
2023-04-15T21:55:22.497Z,99.90
2023-04-15T21:58:04.796Z,99.90
2023-04-15T22:00:47.875Z,99.90
2023-04-15T22:03:33.981Z,99.90
2023-04-15T22:06:17.051Z,1.00
2023-04-15T22:08:59.307Z,1.00
2023-04-15T22:11:41.732Z,1.00
2023-04-15T22:14:23.903Z,1.00
2023-04-15T22:17:06.735Z,1.00
2023-04-15T22:19:49.054Z,1.00
2023-04-15T22:22:44.056Z,46.30
2023-04-15T22:25:26.999Z,99.90
2023-04-15T22:28:09.454Z,99.90
2023-04-15T22:30:54.183Z,99.90
2023-04-15T22:33:36.676Z,99.90
2023-04-15T22:36:18.877Z,99.90
2023-04-15T22:39:01.257Z,99.90
2023-04-15T22:41:43.811Z,99.90
2023-04-15T22:44:26.266Z,99.90
2023-04-15T22:47:08.411Z,99.90
2023-04-15T22:49:50.799Z,99.90
2023-04-15T22:52:33.115Z,99.90
2023-04-15T22:55:17.186Z,99.90
2023-04-15T22:57:59.669Z,99.90
2023-04-15T23:00:42.350Z,99.90
2023-04-15T23:03:24.820Z,99.90
2023-04-15T23:06:07.659Z,99.90
2023-04-15T23:08:50.324Z,99.90
2023-04-15T23:11:32.774Z,99.90
2023-04-15T23:14:14.922Z,99.90
2023-04-15T23:16:58.302Z,99.90
2023-04-15T23:19:40.767Z,99.90
2023-04-15T23:22:23.378Z,99.90
2023-04-15T23:25:06.554Z,99.90
2023-04-15T23:27:49.002Z,99.90
2023-04-15T23:30:31.311Z,99.90
2023-04-15T23:33:13.784Z,99.90
2023-04-15T23:35:56.074Z,99.90
2023-04-15T23:38:38.548Z,99.90
2023-04-15T23:41:22.162Z,99.90
2023-04-15T23:44:04.661Z,99.90
2023-04-15T23:46:47.064Z,99.90
2023-04-15T23:49:29.507Z,99.90
2023-04-15T23:52:11.847Z,99.90
2023-04-15T23:54:54.381Z,99.90
2023-04-15T23:57:36.575Z,99.90
